sensor_id;sensor_type;location;lat;lon;timestamp;temperature;humidity
47338;DHT22;33069;51.970;5.892;2023-07-08T00:00:44;21.30;53.30
47338;DHT22;33069;51.970;5.892;2023-07-08T00:03:14;21.30;53.60
47338;DHT22;33069;51.970;5.892;2023-07-08T00:05:41;21.30;53.70
47338;DHT22;33069;51.970;5.892;2023-07-08T00:08:19;21.30;53.90
47338;DHT22;33069;51.970;5.892;2023-07-08T00:10:45;21.30;53.80
47338;DHT22;33069;51.970;5.892;2023-07-08T00:13:11;21.20;54.00
47338;DHT22;33069;51.970;5.892;2023-07-08T00:15:39;21.20;54.40
47338;DHT22;33069;51.970;5.892;2023-07-08T00:18:23;21.10;54.70
47338;DHT22;33069;51.970;5.892;2023-07-08T00:20:49;21.10;54.80
47338;DHT22;33069;51.970;5.892;2023-07-08T00:23:16;21.10;54.40
47338;DHT22;33069;51.970;5.892;2023-07-08T00:25:42;21.00;54.40
47338;DHT22;33069;51.970;5.892;2023-07-08T00:28:18;21.00;54.90
47338;DHT22;33069;51.970;5.892;2023-07-08T00:30:45;20.90;54.90
47338;DHT22;33069;51.970;5.892;2023-07-08T00:33:11;21.00;54.90
47338;DHT22;33069;51.970;5.892;2023-07-08T00:35:39;20.90;55.10
47338;DHT22;33069;51.970;5.892;2023-07-08T00:38:23;20.80;55.20
47338;DHT22;33069;51.970;5.892;2023-07-08T00:41:10;20.80;55.60
47338;DHT22;33069;51.970;5.892;2023-07-08T00:43:46;20.70;55.40
47338;DHT22;33069;51.970;5.892;2023-07-08T00:49:30;20.70;55.40
47338;DHT22;33069;51.970;5.892;2023-07-08T00:52:22;20.60;55.70
47338;DHT22;33069;51.970;5.892;2023-07-08T00:54:51;20.50;56.30
47338;DHT22;33069;51.970;5.892;2023-07-08T00:57:18;20.50;56.10
47338;DHT22;33069;51.970;5.892;2023-07-08T00:59:56;20.40;56.30
47338;DHT22;33069;51.970;5.892;2023-07-08T01:02:25;20.40;56.40
47338;DHT22;33069;51.970;5.892;2023-07-08T01:05:01;20.30;56.70
47338;DHT22;33069;51.970;5.892;2023-07-08T01:07:30;20.30;56.80
47338;DHT22;33069;51.970;5.892;2023-07-08T01:10:04;20.30;56.90
47338;DHT22;33069;51.970;5.892;2023-07-08T01:12:38;20.30;56.90
47338;DHT22;33069;51.970;5.892;2023-07-08T01:15:07;20.30;56.40
47338;DHT22;33069;51.970;5.892;2023-07-08T01:17:33;20.20;56.80
47338;DHT22;33069;51.970;5.892;2023-07-08T01:20:00;20.20;56.60
47338;DHT22;33069;51.970;5.892;2023-07-08T01:22:39;20.20;57.00
47338;DHT22;33069;51.970;5.892;2023-07-08T01:25:06;20.20;56.80
47338;DHT22;33069;51.970;5.892;2023-07-08T01:27:36;20.20;56.70
47338;DHT22;33069;51.970;5.892;2023-07-08T01:30:04;20.10;57.30
47338;DHT22;33069;51.970;5.892;2023-07-08T01:32:34;20.10;57.00
47338;DHT22;33069;51.970;5.892;2023-07-08T01:35:02;20.00;57.40
47338;DHT22;33069;51.970;5.892;2023-07-08T01:37:38;20.00;57.20
47338;DHT22;33069;51.970;5.892;2023-07-08T01:40:27;20.00;57.50
47338;DHT22;33069;51.970;5.892;2023-07-08T01:42:54;20.00;57.60
47338;DHT22;33069;51.970;5.892;2023-07-08T01:45:22;20.00;57.60
47338;DHT22;33069;51.970;5.892;2023-07-08T01:47:58;19.80;57.50
47338;DHT22;33069;51.970;5.892;2023-07-08T01:50:25;19.80;58.00
47338;DHT22;33069;51.970;5.892;2023-07-08T01:52:53;19.80;58.20
47338;DHT22;33069;51.970;5.892;2023-07-08T01:55:24;19.80;58.30
47338;DHT22;33069;51.970;5.892;2023-07-08T01:57:51;19.70;58.30
47338;DHT22;33069;51.970;5.892;2023-07-08T02:00:19;19.70;58.50
47338;DHT22;33069;51.970;5.892;2023-07-08T02:02:45;19.70;58.90
47338;DHT22;33069;51.970;5.892;2023-07-08T02:05:11;19.70;58.80
47338;DHT22;33069;51.970;5.892;2023-07-08T02:07:37;19.60;58.90
47338;DHT22;33069;51.970;5.892;2023-07-08T02:10:04;19.50;59.00
47338;DHT22;33069;51.970;5.892;2023-07-08T02:12:31;19.50;59.30
47338;DHT22;33069;51.970;5.892;2023-07-08T02:15:01;19.50;59.40
47338;DHT22;33069;51.970;5.892;2023-07-08T02:17:27;19.40;59.60
47338;DHT22;33069;51.970;5.892;2023-07-08T02:19:57;19.30;59.70
47338;DHT22;33069;51.970;5.892;2023-07-08T02:22:23;19.40;59.70
47338;DHT22;33069;51.970;5.892;2023-07-08T02:24:49;19.30;59.80
47338;DHT22;33069;51.970;5.892;2023-07-08T02:27:15;19.30;59.90
47338;DHT22;33069;51.970;5.892;2023-07-08T02:29:42;19.30;60.00
47338;DHT22;33069;51.970;5.892;2023-07-08T02:32:09;19.30;60.00
47338;DHT22;33069;51.970;5.892;2023-07-08T02:34:38;19.30;59.90
47338;DHT22;33069;51.970;5.892;2023-07-08T02:37:04;19.20;60.20
47338;DHT22;33069;51.970;5.892;2023-07-08T02:39:30;19.30;60.30
47338;DHT22;33069;51.970;5.892;2023-07-08T02:41:56;19.20;60.30
47338;DHT22;33069;51.970;5.892;2023-07-08T02:44:23;19.20;60.40
47338;DHT22;33069;51.970;5.892;2023-07-08T02:46:49;19.20;60.40
47338;DHT22;33069;51.970;5.892;2023-07-08T02:49:15;19.20;60.50
47338;DHT22;33069;51.970;5.892;2023-07-08T02:51:41;19.10;60.70
47338;DHT22;33069;51.970;5.892;2023-07-08T02:54:07;19.00;60.50
47338;DHT22;33069;51.970;5.892;2023-07-08T02:56:33;19.10;60.60
47338;DHT22;33069;51.970;5.892;2023-07-08T02:58:59;19.10;60.60
47338;DHT22;33069;51.970;5.892;2023-07-08T03:01:25;19.10;60.70
47338;DHT22;33069;51.970;5.892;2023-07-08T03:03:52;19.00;60.70
47338;DHT22;33069;51.970;5.892;2023-07-08T03:06:22;19.00;60.80
47338;DHT22;33069;51.970;5.892;2023-07-08T03:08:48;18.90;60.90
47338;DHT22;33069;51.970;5.892;2023-07-08T03:11:15;18.90;61.10
47338;DHT22;33069;51.970;5.892;2023-07-08T03:13:41;18.90;61.20
47338;DHT22;33069;51.970;5.892;2023-07-08T03:16:07;18.80;61.10
47338;DHT22;33069;51.970;5.892;2023-07-08T03:18:39;18.80;61.40
47338;DHT22;33069;51.970;5.892;2023-07-08T03:21:13;18.80;61.40
47338;DHT22;33069;51.970;5.892;2023-07-08T03:23:39;18.80;61.20
47338;DHT22;33069;51.970;5.892;2023-07-08T03:26:05;18.80;61.30
47338;DHT22;33069;51.970;5.892;2023-07-08T03:28:31;18.80;61.40
47338;DHT22;33069;51.970;5.892;2023-07-08T03:30:57;18.80;61.40
47338;DHT22;33069;51.970;5.892;2023-07-08T03:33:23;18.80;61.50
47338;DHT22;33069;51.970;5.892;2023-07-08T03:35:50;18.80;61.50
47338;DHT22;33069;51.970;5.892;2023-07-08T03:38:16;18.80;61.40
47338;DHT22;33069;51.970;5.892;2023-07-08T03:40:42;18.80;61.70
47338;DHT22;33069;51.970;5.892;2023-07-08T03:43:08;18.80;61.50
47338;DHT22;33069;51.970;5.892;2023-07-08T03:45:34;18.70;61.60
47338;DHT22;33069;51.970;5.892;2023-07-08T03:48:00;18.80;61.50
47338;DHT22;33069;51.970;5.892;2023-07-08T03:50:27;18.80;61.70
47338;DHT22;33069;51.970;5.892;2023-07-08T03:52:54;18.80;61.60
47338;DHT22;33069;51.970;5.892;2023-07-08T03:55:22;18.80;61.50
47338;DHT22;33069;51.970;5.892;2023-07-08T03:57:48;18.80;61.50
47338;DHT22;33069;51.970;5.892;2023-07-08T04:00:14;18.80;61.50
47338;DHT22;33069;51.970;5.892;2023-07-08T04:02:45;18.90;61.40
47338;DHT22;33069;51.970;5.892;2023-07-08T04:05:16;18.80;61.20
47338;DHT22;33069;51.970;5.892;2023-07-08T04:07:42;18.80;61.40
47338;DHT22;33069;51.970;5.892;2023-07-08T04:10:12;18.80;61.50
47338;DHT22;33069;51.970;5.892;2023-07-08T04:12:39;18.80;61.40
47338;DHT22;33069;51.970;5.892;2023-07-08T04:15:07;18.80;61.50
47338;DHT22;33069;51.970;5.892;2023-07-08T04:17:41;18.80;61.70
47338;DHT22;33069;51.970;5.892;2023-07-08T04:20:08;18.80;61.60
47338;DHT22;33069;51.970;5.892;2023-07-08T04:22:37;18.80;61.70
47338;DHT22;33069;51.970;5.892;2023-07-08T04:25:03;18.80;61.90
47338;DHT22;33069;51.970;5.892;2023-07-08T04:27:30;18.80;61.90
47338;DHT22;33069;51.970;5.892;2023-07-08T04:29:56;18.80;61.90
47338;DHT22;33069;51.970;5.892;2023-07-08T04:32:22;18.80;61.70
47338;DHT22;33069;51.970;5.892;2023-07-08T04:34:52;18.80;61.80
47338;DHT22;33069;51.970;5.892;2023-07-08T04:37:18;18.90;61.50
47338;DHT22;33069;51.970;5.892;2023-07-08T04:39:45;18.90;61.50
47338;DHT22;33069;51.970;5.892;2023-07-08T04:42:11;18.90;61.70
47338;DHT22;33069;51.970;5.892;2023-07-08T04:44:43;19.00;61.60
47338;DHT22;33069;51.970;5.892;2023-07-08T04:47:09;19.00;61.40
47338;DHT22;33069;51.970;5.892;2023-07-08T04:49:38;19.00;61.40
47338;DHT22;33069;51.970;5.892;2023-07-08T04:52:06;18.90;61.50
47338;DHT22;33069;51.970;5.892;2023-07-08T04:54:32;18.90;61.40
47338;DHT22;33069;51.970;5.892;2023-07-08T04:56:58;19.00;61.50
47338;DHT22;33069;51.970;5.892;2023-07-08T04:59:25;19.00;61.60
47338;DHT22;33069;51.970;5.892;2023-07-08T05:01:52;19.00;61.70
47338;DHT22;33069;51.970;5.892;2023-07-08T05:04:20;19.10;61.60
47338;DHT22;33069;51.970;5.892;2023-07-08T05:06:48;19.00;61.70
47338;DHT22;33069;51.970;5.892;2023-07-08T05:09:14;19.00;61.80
47338;DHT22;33069;51.970;5.892;2023-07-08T05:11:40;19.00;61.60
47338;DHT22;33069;51.970;5.892;2023-07-08T05:14:07;19.00;61.80
47338;DHT22;33069;51.970;5.892;2023-07-08T05:16:34;18.90;61.80
47338;DHT22;33069;51.970;5.892;2023-07-08T05:19:02;19.00;61.60
47338;DHT22;33069;51.970;5.892;2023-07-08T05:21:30;19.00;61.70
47338;DHT22;33069;51.970;5.892;2023-07-08T05:24:00;19.00;61.60
47338;DHT22;33069;51.970;5.892;2023-07-08T05:26:27;19.10;61.80
47338;DHT22;33069;51.970;5.892;2023-07-08T05:28:53;19.10;61.80
47338;DHT22;33069;51.970;5.892;2023-07-08T05:31:19;19.10;61.70
47338;DHT22;33069;51.970;5.892;2023-07-08T05:33:45;19.20;61.50
47338;DHT22;33069;51.970;5.892;2023-07-08T05:36:11;19.20;61.60
47338;DHT22;33069;51.970;5.892;2023-07-08T05:38:37;19.30;61.50
47338;DHT22;33069;51.970;5.892;2023-07-08T05:41:04;19.30;61.70
47338;DHT22;33069;51.970;5.892;2023-07-08T05:43:30;19.30;61.50
47338;DHT22;33069;51.970;5.892;2023-07-08T05:46:00;19.30;61.60
47338;DHT22;33069;51.970;5.892;2023-07-08T05:48:27;19.40;61.30
47338;DHT22;33069;51.970;5.892;2023-07-08T05:50:53;19.50;61.10
47338;DHT22;33069;51.970;5.892;2023-07-08T05:53:20;19.60;61.00
47338;DHT22;33069;51.970;5.892;2023-07-08T05:55:48;19.60;61.10
47338;DHT22;33069;51.970;5.892;2023-07-08T05:58:14;19.70;60.90
47338;DHT22;33069;51.970;5.892;2023-07-08T06:00:42;19.70;61.00
47338;DHT22;33069;51.970;5.892;2023-07-08T06:03:09;19.70;61.00
47338;DHT22;33069;51.970;5.892;2023-07-08T06:05:36;19.80;60.80
47338;DHT22;33069;51.970;5.892;2023-07-08T06:08:03;19.90;60.70
47338;DHT22;33069;51.970;5.892;2023-07-08T06:10:29;20.00;60.80
47338;DHT22;33069;51.970;5.892;2023-07-08T06:12:55;20.20;60.50
47338;DHT22;33069;51.970;5.892;2023-07-08T06:15:22;20.30;60.20
47338;DHT22;33069;51.970;5.892;2023-07-08T06:17:48;20.30;60.20
47338;DHT22;33069;51.970;5.892;2023-07-08T06:20:14;20.40;59.80
47338;DHT22;33069;51.970;5.892;2023-07-08T06:22:40;20.40;60.10
47338;DHT22;33069;51.970;5.892;2023-07-08T06:25:06;20.50;60.20
47338;DHT22;33069;51.970;5.892;2023-07-08T06:27:33;20.40;60.10
47338;DHT22;33069;51.970;5.892;2023-07-08T06:29:59;20.40;60.20
47338;DHT22;33069;51.970;5.892;2023-07-08T06:32:25;20.30;60.40
47338;DHT22;33069;51.970;5.892;2023-07-08T06:34:51;20.40;60.50
47338;DHT22;33069;51.970;5.892;2023-07-08T06:37:18;20.50;60.30
47338;DHT22;33069;51.970;5.892;2023-07-08T06:39:44;20.50;60.50
47338;DHT22;33069;51.970;5.892;2023-07-08T06:42:10;20.60;60.50
47338;DHT22;33069;51.970;5.892;2023-07-08T06:44:36;20.70;60.20
47338;DHT22;33069;51.970;5.892;2023-07-08T06:47:04;20.80;60.30
47338;DHT22;33069;51.970;5.892;2023-07-08T06:49:30;20.80;60.20
47338;DHT22;33069;51.970;5.892;2023-07-08T06:51:56;20.90;60.50
47338;DHT22;33069;51.970;5.892;2023-07-08T06:54:25;21.00;60.50
47338;DHT22;33069;51.970;5.892;2023-07-08T06:56:53;21.20;60.20
47338;DHT22;33069;51.970;5.892;2023-07-08T06:59:19;21.30;60.30
47338;DHT22;33069;51.970;5.892;2023-07-08T07:01:45;21.30;60.30
47338;DHT22;33069;51.970;5.892;2023-07-08T07:04:11;21.30;60.30
47338;DHT22;33069;51.970;5.892;2023-07-08T07:06:37;21.40;60.10
47338;DHT22;33069;51.970;5.892;2023-07-08T07:09:04;21.50;59.80
47338;DHT22;33069;51.970;5.892;2023-07-08T07:11:30;21.70;60.20
47338;DHT22;33069;51.970;5.892;2023-07-08T07:13:56;21.70;60.10
47338;DHT22;33069;51.970;5.892;2023-07-08T07:16:22;21.70;60.10
47338;DHT22;33069;51.970;5.892;2023-07-08T07:18:49;21.80;60.30
47338;DHT22;33069;51.970;5.892;2023-07-08T07:21:17;21.80;59.90
47338;DHT22;33069;51.970;5.892;2023-07-08T07:23:43;22.00;59.80
47338;DHT22;33069;51.970;5.892;2023-07-08T07:26:10;22.00;59.90
47338;DHT22;33069;51.970;5.892;2023-07-08T07:28:36;22.20;60.10
47338;DHT22;33069;51.970;5.892;2023-07-08T07:31:04;22.30;59.70
47338;DHT22;33069;51.970;5.892;2023-07-08T07:33:33;22.30;59.50
47338;DHT22;33069;51.970;5.892;2023-07-08T07:35:59;22.40;59.60
47338;DHT22;33069;51.970;5.892;2023-07-08T07:38:25;22.40;59.40
47338;DHT22;33069;51.970;5.892;2023-07-08T07:40:55;22.40;59.90
47338;DHT22;33069;51.970;5.892;2023-07-08T07:43:22;22.50;59.40
47338;DHT22;33069;51.970;5.892;2023-07-08T07:45:51;22.70;59.40
47338;DHT22;33069;51.970;5.892;2023-07-08T07:48:21;22.70;59.50
47338;DHT22;33069;51.970;5.892;2023-07-08T07:50:48;22.80;59.20
47338;DHT22;33069;51.970;5.892;2023-07-08T07:53:15;22.90;58.90
47338;DHT22;33069;51.970;5.892;2023-07-08T07:55:41;23.00;58.50
47338;DHT22;33069;51.970;5.892;2023-07-08T07:58:07;23.10;58.60
47338;DHT22;33069;51.970;5.892;2023-07-08T08:00:34;23.20;59.00
47338;DHT22;33069;51.970;5.892;2023-07-08T08:03:00;23.30;58.80
47338;DHT22;33069;51.970;5.892;2023-07-08T08:05:26;23.30;58.20
47338;DHT22;33069;51.970;5.892;2023-07-08T08:07:52;23.30;57.60
47338;DHT22;33069;51.970;5.892;2023-07-08T08:10:18;23.40;58.00
47338;DHT22;33069;51.970;5.892;2023-07-08T08:12:44;23.50;58.40
47338;DHT22;33069;51.970;5.892;2023-07-08T08:15:11;23.60;58.00
47338;DHT22;33069;51.970;5.892;2023-07-08T08:17:38;23.70;57.90
47338;DHT22;33069;51.970;5.892;2023-07-08T08:20:05;23.80;58.00
47338;DHT22;33069;51.970;5.892;2023-07-08T08:22:31;23.80;57.70
47338;DHT22;33069;51.970;5.892;2023-07-08T08:24:57;23.90;57.60
47338;DHT22;33069;51.970;5.892;2023-07-08T08:27:23;24.00;57.80
47338;DHT22;33069;51.970;5.892;2023-07-08T08:29:49;24.20;57.00
47338;DHT22;33069;51.970;5.892;2023-07-08T08:32:15;24.30;57.10
47338;DHT22;33069;51.970;5.892;2023-07-08T08:34:41;24.30;57.50
47338;DHT22;33069;51.970;5.892;2023-07-08T08:37:08;24.40;57.30
47338;DHT22;33069;51.970;5.892;2023-07-08T08:39:34;24.40;56.70
47338;DHT22;33069;51.970;5.892;2023-07-08T08:42:01;24.50;57.00
47338;DHT22;33069;51.970;5.892;2023-07-08T08:48:57;24.80;57.20
47338;DHT22;33069;51.970;5.892;2023-07-08T08:51:28;24.80;56.90
47338;DHT22;33069;51.970;5.892;2023-07-08T08:53:58;24.90;57.20
47338;DHT22;33069;51.970;5.892;2023-07-08T08:56:28;25.20;57.50
47338;DHT22;33069;51.970;5.892;2023-07-08T08:59:04;25.30;55.60
47338;DHT22;33069;51.970;5.892;2023-07-08T09:01:31;25.40;55.80
47338;DHT22;33069;51.970;5.892;2023-07-08T09:03:59;25.50;55.80
47338;DHT22;33069;51.970;5.892;2023-07-08T09:06:28;25.50;55.00
47338;DHT22;33069;51.970;5.892;2023-07-08T09:08:59;25.60;55.60
47338;DHT22;33069;51.970;5.892;2023-07-08T09:11:45;25.70;54.70
47338;DHT22;33069;51.970;5.892;2023-07-08T09:14:28;25.80;53.90
47338;DHT22;33069;51.970;5.892;2023-07-08T09:25:10;26.20;53.20
47338;DHT22;33069;51.970;5.892;2023-07-08T09:27:37;26.20;53.80
47338;DHT22;33069;51.970;5.892;2023-07-08T09:30:03;26.30;53.20
47338;DHT22;33069;51.970;5.892;2023-07-08T09:32:30;26.20;52.20
47338;DHT22;33069;51.970;5.892;2023-07-08T09:35:05;26.30;53.10
47338;DHT22;33069;51.970;5.892;2023-07-08T09:37:34;26.40;53.00
47338;DHT22;33069;51.970;5.892;2023-07-08T09:40:49;26.40;52.90
47338;DHT22;33069;51.970;5.892;2023-07-08T09:42:52;26.50;52.40
47338;DHT22;33069;51.970;5.892;2023-07-08T09:45:23;26.60;53.20
47338;DHT22;33069;51.970;5.892;2023-07-08T09:47:57;26.80;52.90
47338;DHT22;33069;51.970;5.892;2023-07-08T09:50:26;26.90;52.30
47338;DHT22;33069;51.970;5.892;2023-07-08T09:52:55;26.90;51.70
47338;DHT22;33069;51.970;5.892;2023-07-08T09:55:30;27.10;52.80
47338;DHT22;33069;51.970;5.892;2023-07-08T09:57:58;27.10;53.00
47338;DHT22;33069;51.970;5.892;2023-07-08T10:00:50;27.10;51.80
47338;DHT22;33069;51.970;5.892;2023-07-08T10:03:23;27.30;51.50
47338;DHT22;33069;51.970;5.892;2023-07-08T10:05:51;27.30;50.30
47338;DHT22;33069;51.970;5.892;2023-07-08T10:08:20;27.30;51.00
47338;DHT22;33069;51.970;5.892;2023-07-08T10:13:41;27.40;50.10
47338;DHT22;33069;51.970;5.892;2023-07-08T10:16:23;27.60;51.40
47338;DHT22;33069;51.970;5.892;2023-07-08T10:18:51;27.70;51.30
47338;DHT22;33069;51.970;5.892;2023-07-08T10:26:40;28.10;50.40
47338;DHT22;33069;51.970;5.892;2023-07-08T10:32:28;28.30;49.20
47338;DHT22;33069;51.970;5.892;2023-07-08T10:40:52;28.50;50.10
47338;DHT22;33069;51.970;5.892;2023-07-08T10:51:50;28.90;49.00
47338;DHT22;33069;51.970;5.892;2023-07-08T10:56:59;29.00;49.90
47338;DHT22;33069;51.970;5.892;2023-07-08T10:59:53;29.00;48.10
47338;DHT22;33069;51.970;5.892;2023-07-08T11:04:55;29.20;48.00
47338;DHT22;33069;51.970;5.892;2023-07-08T11:07:44;29.30;47.60
47338;DHT22;33069;51.970;5.892;2023-07-08T11:10:22;29.20;48.00
47338;DHT22;33069;51.970;5.892;2023-07-08T11:13:06;29.30;48.30
47338;DHT22;33069;51.970;5.892;2023-07-08T11:18:09;29.70;47.40
47338;DHT22;33069;51.970;5.892;2023-07-08T11:28:42;29.50;47.30
47338;DHT22;33069;51.970;5.892;2023-07-08T11:31:09;29.80;49.10
47338;DHT22;33069;51.970;5.892;2023-07-08T11:33:37;29.80;47.10
47338;DHT22;33069;51.970;5.892;2023-07-08T11:36:05;29.80;48.10
47338;DHT22;33069;51.970;5.892;2023-07-08T11:38:32;29.80;48.60
47338;DHT22;33069;51.970;5.892;2023-07-08T11:41:20;30.00;48.00
47338;DHT22;33069;51.970;5.892;2023-07-08T11:43:57;30.00;47.10
47338;DHT22;33069;51.970;5.892;2023-07-08T11:46:27;30.10;47.80
47338;DHT22;33069;51.970;5.892;2023-07-08T11:49:12;30.20;48.30
47338;DHT22;33069;51.970;5.892;2023-07-08T11:51:43;30.30;47.40
47338;DHT22;33069;51.970;5.892;2023-07-08T11:54:28;30.30;47.80
47338;DHT22;33069;51.970;5.892;2023-07-08T11:57:05;30.30;47.50
47338;DHT22;33069;51.970;5.892;2023-07-08T11:59:40;30.40;48.20
47338;DHT22;33069;51.970;5.892;2023-07-08T12:02:17;30.60;46.30
47338;DHT22;33069;51.970;5.892;2023-07-08T12:07:29;30.80;46.90
47338;DHT22;33069;51.970;5.892;2023-07-08T12:10:03;30.80;46.90
47338;DHT22;33069;51.970;5.892;2023-07-08T12:12:32;30.80;46.20
47338;DHT22;33069;51.970;5.892;2023-07-08T12:17:47;30.90;47.20
47338;DHT22;33069;51.970;5.892;2023-07-08T12:20:30;30.80;43.90
47338;DHT22;33069;51.970;5.892;2023-07-08T12:22:57;30.90;44.80
47338;DHT22;33069;51.970;5.892;2023-07-08T12:25:31;31.00;46.10
47338;DHT22;33069;51.970;5.892;2023-07-08T12:27:58;31.10;44.40
47338;DHT22;33069;51.970;5.892;2023-07-08T12:30:25;31.10;43.20
47338;DHT22;33069;51.970;5.892;2023-07-08T12:32:53;31.20;44.40
47338;DHT22;33069;51.970;5.892;2023-07-08T12:35:24;31.20;45.30
47338;DHT22;33069;51.970;5.892;2023-07-08T12:37:56;31.40;45.50
47338;DHT22;33069;51.970;5.892;2023-07-08T12:40:24;31.40;44.90
47338;DHT22;33069;51.970;5.892;2023-07-08T12:42:51;31.50;44.90
47338;DHT22;33069;51.970;5.892;2023-07-08T12:45:20;31.60;44.10
47338;DHT22;33069;51.970;5.892;2023-07-08T12:47:48;31.60;42.60
47338;DHT22;33069;51.970;5.892;2023-07-08T12:50:15;31.60;44.10
47338;DHT22;33069;51.970;5.892;2023-07-08T12:52:44;31.70;45.30
47338;DHT22;33069;51.970;5.892;2023-07-08T12:55:12;31.80;44.00
47338;DHT22;33069;51.970;5.892;2023-07-08T12:57:42;31.60;43.60
47338;DHT22;33069;51.970;5.892;2023-07-08T13:00:25;31.70;42.10
47338;DHT22;33069;51.970;5.892;2023-07-08T13:03:15;31.90;41.00
47338;DHT22;33069;51.970;5.892;2023-07-08T13:05:43;32.10;39.50
47338;DHT22;33069;51.970;5.892;2023-07-08T13:08:14;32.30;39.30
47338;DHT22;33069;51.970;5.892;2023-07-08T13:10:41;32.40;39.70
47338;DHT22;33069;51.970;5.892;2023-07-08T13:13:13;32.50;36.30
47338;DHT22;33069;51.970;5.892;2023-07-08T13:15:42;32.80;38.00
47338;DHT22;33069;51.970;5.892;2023-07-08T13:20:59;33.10;37.40
47338;DHT22;33069;51.970;5.892;2023-07-08T13:23:27;33.30;37.50
47338;DHT22;33069;51.970;5.892;2023-07-08T13:25:54;33.40;37.30
47338;DHT22;33069;51.970;5.892;2023-07-08T13:28:24;33.40;35.80
47338;DHT22;33069;51.970;5.892;2023-07-08T13:31:01;33.40;36.70
47338;DHT22;33069;51.970;5.892;2023-07-08T13:33:32;33.50;36.20
47338;DHT22;33069;51.970;5.892;2023-07-08T13:36:01;33.60;34.20
47338;DHT22;33069;51.970;5.892;2023-07-08T13:38:33;33.50;36.00
47338;DHT22;33069;51.970;5.892;2023-07-08T13:41:02;33.50;37.20
47338;DHT22;33069;51.970;5.892;2023-07-08T13:43:34;33.60;35.30
47338;DHT22;33069;51.970;5.892;2023-07-08T13:46:01;33.50;34.70
47338;DHT22;33069;51.970;5.892;2023-07-08T13:48:36;33.40;35.90
47338;DHT22;33069;51.970;5.892;2023-07-08T13:56:13;33.40;36.00
47338;DHT22;33069;51.970;5.892;2023-07-08T13:58:45;33.70;37.00
47338;DHT22;33069;51.970;5.892;2023-07-08T14:01:18;33.60;34.30
47338;DHT22;33069;51.970;5.892;2023-07-08T14:03:45;33.90;34.80
47338;DHT22;33069;51.970;5.892;2023-07-08T14:06:18;34.10;33.40
47338;DHT22;33069;51.970;5.892;2023-07-08T14:08:45;34.30;33.20
47338;DHT22;33069;51.970;5.892;2023-07-08T14:11:11;34.40;32.60
47338;DHT22;33069;51.970;5.892;2023-07-08T14:13:37;34.50;32.70
47338;DHT22;33069;51.970;5.892;2023-07-08T14:16:10;34.60;32.40
47338;DHT22;33069;51.970;5.892;2023-07-08T14:18:40;34.70;33.20
47338;DHT22;33069;51.970;5.892;2023-07-08T14:21:07;34.40;33.10
47338;DHT22;33069;51.970;5.892;2023-07-08T14:23:33;34.50;32.90
47338;DHT22;33069;51.970;5.892;2023-07-08T14:25:59;34.60;32.90
47338;DHT22;33069;51.970;5.892;2023-07-08T14:28:25;34.40;33.40
47338;DHT22;33069;51.970;5.892;2023-07-08T14:30:51;34.60;34.30
47338;DHT22;33069;51.970;5.892;2023-07-08T14:33:17;34.60;34.20
47338;DHT22;33069;51.970;5.892;2023-07-08T14:35:44;34.80;34.50
47338;DHT22;33069;51.970;5.892;2023-07-08T14:38:11;35.00;33.80
47338;DHT22;33069;51.970;5.892;2023-07-08T14:40:40;35.20;33.90
47338;DHT22;33069;51.970;5.892;2023-07-08T14:45:50;35.20;32.80
47338;DHT22;33069;51.970;5.892;2023-07-08T14:48:17;35.20;32.60
47338;DHT22;33069;51.970;5.892;2023-07-08T14:50:43;35.30;33.90
47338;DHT22;33069;51.970;5.892;2023-07-08T14:53:09;35.40;33.20
47338;DHT22;33069;51.970;5.892;2023-07-08T14:55:36;35.80;30.60
47338;DHT22;33069;51.970;5.892;2023-07-08T14:58:03;35.80;30.40
47338;DHT22;33069;51.970;5.892;2023-07-08T15:00:29;35.90;31.60
47338;DHT22;33069;51.970;5.892;2023-07-08T15:02:56;35.70;31.70
47338;DHT22;33069;51.970;5.892;2023-07-08T15:05:24;35.80;29.90
47338;DHT22;33069;51.970;5.892;2023-07-08T15:07:55;35.80;30.30
47338;DHT22;33069;51.970;5.892;2023-07-08T15:10:28;35.80;31.80
47338;DHT22;33069;51.970;5.892;2023-07-08T15:12:55;35.50;31.30
47338;DHT22;33069;51.970;5.892;2023-07-08T15:15:33;35.30;33.50
47338;DHT22;33069;51.970;5.892;2023-07-08T15:18:02;35.30;34.10
47338;DHT22;33069;51.970;5.892;2023-07-08T15:20:32;35.00;33.20
47338;DHT22;33069;51.970;5.892;2023-07-08T15:22:58;35.20;34.30
47338;DHT22;33069;51.970;5.892;2023-07-08T15:25:25;35.50;32.80
47338;DHT22;33069;51.970;5.892;2023-07-08T15:27:55;35.50;32.20
47338;DHT22;33069;51.970;5.892;2023-07-08T15:30:25;35.40;32.10
47338;DHT22;33069;51.970;5.892;2023-07-08T15:32:53;35.60;32.00
47338;DHT22;33069;51.970;5.892;2023-07-08T15:35:25;35.80;30.40
47338;DHT22;33069;51.970;5.892;2023-07-08T15:37:52;35.80;31.80
47338;DHT22;33069;51.970;5.892;2023-07-08T15:40:21;35.90;30.20
47338;DHT22;33069;51.970;5.892;2023-07-08T15:42:53;36.40;30.90
47338;DHT22;33069;51.970;5.892;2023-07-08T15:45:31;36.40;30.10
47338;DHT22;33069;51.970;5.892;2023-07-08T15:47:58;36.60;31.20
47338;DHT22;33069;51.970;5.892;2023-07-08T15:50:26;36.60;32.30
47338;DHT22;33069;51.970;5.892;2023-07-08T15:52:53;36.40;30.30
47338;DHT22;33069;51.970;5.892;2023-07-08T15:55:41;36.30;30.90
47338;DHT22;33069;51.970;5.892;2023-07-08T16:00:45;35.90;29.60
47338;DHT22;33069;51.970;5.892;2023-07-08T16:03:21;35.60;31.10
47338;DHT22;33069;51.970;5.892;2023-07-08T16:05:48;35.20;31.80
47338;DHT22;33069;51.970;5.892;2023-07-08T16:08:14;34.80;32.60
47338;DHT22;33069;51.970;5.892;2023-07-08T16:10:40;34.70;31.80
47338;DHT22;33069;51.970;5.892;2023-07-08T16:13:09;34.60;32.30
47338;DHT22;33069;51.970;5.892;2023-07-08T16:15:36;34.60;32.40
47338;DHT22;33069;51.970;5.892;2023-07-08T16:18:04;34.60;31.10
47338;DHT22;33069;51.970;5.892;2023-07-08T16:20:34;34.60;31.20
47338;DHT22;33069;51.970;5.892;2023-07-08T16:23:00;34.60;32.40
47338;DHT22;33069;51.970;5.892;2023-07-08T16:25:32;34.30;32.20
47338;DHT22;33069;51.970;5.892;2023-07-08T16:27:59;34.40;32.80
47338;DHT22;33069;51.970;5.892;2023-07-08T16:30:26;34.90;32.90
47338;DHT22;33069;51.970;5.892;2023-07-08T16:32:54;35.00;33.90
47338;DHT22;33069;51.970;5.892;2023-07-08T16:35:21;35.10;34.10
47338;DHT22;33069;51.970;5.892;2023-07-08T16:37:49;35.10;31.90
47338;DHT22;33069;51.970;5.892;2023-07-08T16:40:18;35.00;33.90
47338;DHT22;33069;51.970;5.892;2023-07-08T16:42:47;35.00;32.10
47338;DHT22;33069;51.970;5.892;2023-07-08T16:45:15;34.70;32.00
47338;DHT22;33069;51.970;5.892;2023-07-08T16:47:44;34.50;32.90
47338;DHT22;33069;51.970;5.892;2023-07-08T16:50:11;34.40;32.30
47338;DHT22;33069;51.970;5.892;2023-07-08T16:52:38;34.40;32.00
47338;DHT22;33069;51.970;5.892;2023-07-08T16:55:22;34.30;33.50
47338;DHT22;33069;51.970;5.892;2023-07-08T16:57:48;34.30;33.10